Time;durP1;ratioP1;P1;durP2;ratioP2;P2;SDS_P1;SDS_P2;PMS_P1;PMS_P2;Temp;Humidity;BMP_temperature;BMP_pressure;BME280_temperature;BME280_humidity;BME280_pressure;Samples;Min_cycle;Max_cycle;Signal;HPM_P1;HPM_P2
2022/03/06 00:00:48;;;;;;;44.85;18.02;;;;;;;;;;4914929;28;106433;-65
2022/03/06 00:03:15;;;;;;;40.63;16.38;;;;;;;;;;4919512;28;106443;-64
2022/03/06 00:05:41;;;;;;;41.05;16.15;;;;;;;;;;4910602;28;106240;-63
2022/03/06 00:08:08;;;;;;;41.70;16.95;;;;;;;;;;4909748;28;106217;-64
2022/03/06 00:10:34;;;;;;;40.70;16.52;;;;;;;;;;4910517;28;107343;-63
2022/03/06 00:13:01;;;;;;;40.25;16.30;;;;;;;;;;4911688;28;106737;-63
2022/03/06 00:15:27;;;;;;;39.65;16.08;;;;;;;;;;4918994;28;106710;-63
2022/03/06 00:17:55;;;;;;;45.22;18.08;;;;;;;;;;4911618;28;107177;-63
2022/03/06 00:20:22;;;;;;;39.63;16.98;;;;;;;;;;4910442;28;106211;-63
2022/03/06 00:22:48;;;;;;;38.35;16.20;;;;;;;;;;4913956;28;106959;-63
2022/03/06 00:25:15;;;;;;;37.10;15.93;;;;;;;;;;4912558;28;107181;-63
2022/03/06 00:27:41;;;;;;;37.35;16.30;;;;;;;;;;4910684;28;106819;-64
2022/03/06 00:30:07;;;;;;;38.55;15.93;;;;;;;;;;4911503;28;106421;-65
2022/03/06 00:32:34;;;;;;;40.28;16.02;;;;;;;;;;4915858;28;105634;-65
2022/03/06 00:35:00;;;;;;;39.38;16.45;;;;;;;;;;4911076;28;106737;-65
2022/03/06 00:37:27;;;;;;;41.35;17.13;;;;;;;;;;4910199;28;107909;-64
2022/03/06 00:39:53;;;;;;;37.20;15.38;;;;;;;;;;4909598;28;107106;-63
2022/03/06 00:42:19;;;;;;;37.05;15.55;;;;;;;;;;4907435;28;108378;-64
2022/03/06 00:44:46;;;;;;;38.42;16.55;;;;;;;;;;4908705;28;107431;-63
2022/03/06 00:47:12;;;;;;;40.15;16.35;;;;;;;;;;4913229;28;106250;-63
2022/03/06 00:49:38;;;;;;;39.70;16.55;;;;;;;;;;4908242;28;106878;-64
2022/03/06 00:52:05;;;;;;;40.53;16.23;;;;;;;;;;4912104;28;106255;-63
2022/03/06 00:54:31;;;;;;;40.83;16.27;;;;;;;;;;4910290;28;107200;-63
2022/03/06 00:56:58;;;;;;;39.88;16.35;;;;;;;;;;4908268;28;106474;-63
2022/03/06 00:59:24;;;;;;;38.83;16.20;;;;;;;;;;4909829;28;106663;-63
2022/03/06 01:01:50;;;;;;;35.75;14.98;;;;;;;;;;4909663;28;106897;-64
2022/03/06 01:04:17;;;;;;;43.47;17.83;;;;;;;;;;4908299;28;107349;-64
2022/03/06 01:06:43;;;;;;;39.78;17.05;;;;;;;;;;4913424;28;106137;-64
2022/03/06 01:09:10;;;;;;;50.75;20.52;;;;;;;;;;4909161;28;106310;-63
2022/03/06 01:11:36;;;;;;;46.85;19.70;;;;;;;;;;4909302;28;106591;-63
2022/03/06 01:14:04;;;;;;;49.67;18.45;;;;;;;;;;4915071;28;106987;-63
2022/03/06 01:16:30;;;;;;;40.13;16.92;;;;;;;;;;4908495;28;107341;-63
2022/03/06 01:18:57;;;;;;;43.90;16.90;;;;;;;;;;4912822;28;106729;-63
2022/03/06 01:21:23;;;;;;;47.67;16.15;;;;;;;;;;4909269;28;106952;-63
2022/03/06 01:23:49;;;;;;;46.30;17.60;;;;;;;;;;4908847;28;107280;-63
2022/03/06 01:26:17;;;;;;;44.22;17.75;;;;;;;;;;4909792;28;106114;-63
2022/03/06 01:28:43;;;;;;;38.95;16.55;;;;;;;;;;4913584;28;106581;-65
2022/03/06 01:31:10;;;;;;;43.65;18.23;;;;;;;;;;4907628;28;105865;-64
2022/03/06 01:33:37;;;;;;;36.90;16.40;;;;;;;;;;4909743;28;107086;-64
2022/03/06 01:36:03;;;;;;;44.65;16.00;;;;;;;;;;4909831;28;107185;-65
2022/03/06 01:38:30;;;;;;;44.30;16.45;;;;;;;;;;4918282;28;107015;-64
2022/03/06 01:40:56;;;;;;;40.58;16.05;;;;;;;;;;4908291;28;108029;-65
2022/03/06 01:43:22;;;;;;;37.08;14.95;;;;;;;;;;4909659;28;107541;-64
2022/03/06 01:45:49;;;;;;;30.23;13.95;;;;;;;;;;4907784;28;106457;-64
2022/03/06 01:48:15;;;;;;;36.22;14.48;;;;;;;;;;4916063;28;106734;-64
2022/03/06 01:50:42;;;;;;;37.40;14.60;;;;;;;;;;4911988;28;106176;-64
2022/03/06 01:53:09;;;;;;;35.88;15.52;;;;;;;;;;4919296;28;106705;-65
2022/03/06 01:55:36;;;;;;;42.17;15.70;;;;;;;;;;4913219;28;107286;-64
2022/03/06 01:58:04;;;;;;;36.83;14.85;;;;;;;;;;4909542;28;106309;-64
2022/03/06 02:00:39;;;;;;;35.08;15.35;;;;;;;;;;4901146;28;106477;-65
2022/03/06 02:03:06;;;;;;;35.70;14.75;;;;;;;;;;4903452;28;107551;-64
2022/03/06 02:05:33;;;;;;;29.35;13.32;;;;;;;;;;4912938;28;106306;-64
2022/03/06 02:07:59;;;;;;;40.60;14.98;;;;;;;;;;4891959;28;106647;-65
2022/03/06 02:10:26;;;;;;;31.98;14.13;;;;;;;;;;4948526;22;106378;-62
2022/03/06 02:12:52;;;;;;;32.67;13.98;;;;;;;;;;4970376;28;106414;-65
2022/03/06 02:15:19;;;;;;;29.42;13.48;;;;;;;;;;4967445;28;108477;-65
2022/03/06 02:17:45;;;;;;;27.77;12.40;;;;;;;;;;4966629;28;106888;-65
2022/03/06 02:20:13;;;;;;;31.08;13.95;;;;;;;;;;4974592;28;106489;-64
2022/03/06 02:22:41;;;;;;;29.38;13.25;;;;;;;;;;4967415;28;107745;-65
2022/03/06 02:25:15;;;;;;;32.83;12.02;;;;;;;;;;4965581;28;106404;-66
2022/03/06 02:27:42;;;;;;;25.60;11.43;;;;;;;;;;4969923;28;105918;-65
2022/03/06 02:30:10;;;;;;;25.33;10.88;;;;;;;;;;4976263;28;106847;-65
2022/03/06 02:32:37;;;;;;;25.95;11.50;;;;;;;;;;4965079;28;107462;-63
2022/03/06 02:35:04;;;;;;;34.85;11.63;;;;;;;;;;4966403;28;106426;-63
2022/03/06 02:37:30;;;;;;;26.75;11.45;;;;;;;;;;4969603;28;105906;-64
2022/03/06 02:39:59;;;;;;;27.10;11.55;;;;;;;;;;4957054;28;106373;-64
2022/03/06 02:42:30;;;;;;;23.92;11.30;;;;;;;;;;4971759;28;107260;-64
2022/03/06 02:44:58;;;;;;;24.95;10.95;;;;;;;;;;4967634;28;106474;-64
2022/03/06 02:47:25;;;;;;;26.33;11.23;;;;;;;;;;4972089;28;106411;-63
2022/03/06 02:49:51;;;;;;;27.55;11.43;;;;;;;;;;4973886;28;106407;-64
2022/03/06 02:52:18;;;;;;;24.45;11.05;;;;;;;;;;4972409;28;106994;-64
2022/03/06 02:54:45;;;;;;;25.40;11.57;;;;;;;;;;4959643;28;106771;-65
2022/03/06 02:57:11;;;;;;;24.65;11.20;;;;;;;;;;4975087;28;106402;-65
2022/03/06 02:59:38;;;;;;;25.75;11.40;;;;;;;;;;4977288;28;106840;-66
2022/03/06 03:02:05;;;;;;;24.50;11.27;;;;;;;;;;4967225;28;108335;-65
2022/03/06 03:04:33;;;;;;;24.00;11.43;;;;;;;;;;4971643;28;105596;-65
2022/03/06 03:06:59;;;;;;;26.52;11.15;;;;;;;;;;4966487;28;106718;-65
2022/03/06 03:09:26;;;;;;;27.90;11.50;;;;;;;;;;4976625;28;108045;-65
2022/03/06 03:11:54;;;;;;;25.02;11.20;;;;;;;;;;4978993;28;106243;-65
2022/03/06 03:14:21;;;;;;;24.88;10.68;;;;;;;;;;4951096;28;106833;-65
2022/03/06 03:16:47;;;;;;;25.90;11.90;;;;;;;;;;4973676;28;106881;-65
2022/03/06 03:19:14;;;;;;;26.02;10.88;;;;;;;;;;4965978;28;107955;-64
2022/03/06 03:21:41;;;;;;;23.73;11.32;;;;;;;;;;4965219;28;106155;-63
2022/03/06 03:24:07;;;;;;;23.98;10.88;;;;;;;;;;4952108;28;106175;-65
2022/03/06 03:26:34;;;;;;;20.40;10.48;;;;;;;;;;4962024;28;106741;-64
2022/03/06 03:29:00;;;;;;;22.20;10.38;;;;;;;;;;4969187;28;107213;-64
2022/03/06 03:31:26;;;;;;;23.52;10.55;;;;;;;;;;4967895;28;106235;-63
2022/03/06 03:33:53;;;;;;;21.60;11.13;;;;;;;;;;4970499;28;106142;-63
2022/03/06 03:36:19;;;;;;;27.30;11.77;;;;;;;;;;4966277;28;107254;-63
2022/03/06 03:38:46;;;;;;;28.42;11.82;;;;;;;;;;4973586;28;106369;-63
2022/03/06 03:41:12;;;;;;;25.80;10.63;;;;;;;;;;4962548;28;108778;-64
2022/03/06 03:43:38;;;;;;;25.15;11.38;;;;;;;;;;4974254;28;106795;-64
2022/03/06 03:46:07;;;;;;;28.63;11.77;;;;;;;;;;4969640;28;107228;-64
2022/03/06 03:48:34;;;;;;;25.27;11.52;;;;;;;;;;4975200;28;107312;-64
2022/03/06 03:51:00;;;;;;;22.70;11.20;;;;;;;;;;4951920;28;105922;-64
2022/03/06 03:53:27;;;;;;;23.23;11.85;;;;;;;;;;4972760;28;106018;-64
2022/03/06 03:55:53;;;;;;;25.95;12.27;;;;;;;;;;4960221;28;107514;-63
2022/03/06 03:58:20;;;;;;;24.92;11.40;;;;;;;;;;4986634;28;106277;-64
2022/03/06 04:00:55;;;;;;;25.45;11.88;;;;;;;;;;4965675;28;106257;-64
2022/03/06 04:03:23;;;;;;;28.00;12.95;;;;;;;;;;4984882;28;106690;-63
2022/03/06 04:05:49;;;;;;;27.55;12.90;;;;;;;;;;4973892;28;107165;-63
2022/03/06 04:08:15;;;;;;;29.77;13.57;;;;;;;;;;4959543;28;107311;-63
2022/03/06 04:10:42;;;;;;;25.23;11.85;;;;;;;;;;4971516;28;106199;-63
2022/03/06 04:13:08;;;;;;;29.70;13.55;;;;;;;;;;4976331;28;106818;-65
2022/03/06 04:15:34;;;;;;;27.77;13.50;;;;;;;;;;4965542;28;106523;-63
2022/03/06 04:18:02;;;;;;;25.95;12.38;;;;;;;;;;4961236;28;106047;-64
2022/03/06 04:20:29;;;;;;;32.30;14.13;;;;;;;;;;4969435;28;106773;-64
2022/03/06 04:22:55;;;;;;;26.13;12.97;;;;;;;;;;4972368;28;107381;-65
2022/03/06 04:25:22;;;;;;;29.55;12.80;;;;;;;;;;4980738;28;107088;-63
2022/03/06 04:27:48;;;;;;;29.03;12.87;;;;;;;;;;4963766;28;107577;-63
2022/03/06 04:30:15;;;;;;;27.88;13.38;;;;;;;;;;4970046;28;106359;-63
2022/03/06 04:32:41;;;;;;;28.00;13.32;;;;;;;;;;4962063;28;108413;-64
2022/03/06 04:35:07;;;;;;;28.07;13.43;;;;;;;;;;4965155;28;107268;-64
2022/03/06 04:37:34;;;;;;;30.60;14.00;;;;;;;;;;4969404;28;106533;-62
2022/03/06 04:40:00;;;;;;;26.85;13.73;;;;;;;;;;4961063;28;106907;-63
2022/03/06 04:42:27;;;;;;;28.77;13.35;;;;;;;;;;4968322;28;107428;-63
2022/03/06 04:44:53;;;;;;;28.73;14.10;;;;;;;;;;4972589;28;106610;-63
2022/03/06 04:47:19;;;;;;;28.38;13.73;;;;;;;;;;4976371;28;106839;-63
2022/03/06 04:49:46;;;;;;;25.38;13.23;;;;;;;;;;4969064;28;105768;-64
2022/03/06 04:52:12;;;;;;;28.77;13.70;;;;;;;;;;4975704;28;106713;-63
2022/03/06 04:54:38;;;;;;;30.58;14.18;;;;;;;;;;4962052;28;107460;-64
2022/03/06 04:57:05;;;;;;;28.50;13.83;;;;;;;;;;4974658;28;105917;-63
2022/03/06 04:59:31;;;;;;;32.17;14.10;;;;;;;;;;4965832;28;106372;-63
2022/03/06 05:01:57;;;;;;;31.70;14.82;;;;;;;;;;4957628;28;107532;-63
2022/03/06 05:04:24;;;;;;;30.50;13.85;;;;;;;;;;4974352;28;106548;-62
2022/03/06 05:06:50;;;;;;;27.40;13.50;;;;;;;;;;4961191;28;107107;-63
2022/03/06 05:09:17;;;;;;;29.42;14.25;;;;;;;;;;4966357;28;106093;-63
2022/03/06 05:11:43;;;;;;;28.35;13.43;;;;;;;;;;4968843;28;107558;-63
2022/03/06 05:14:09;;;;;;;30.88;14.02;;;;;;;;;;4972351;28;107150;-63
2022/03/06 05:16:36;;;;;;;27.20;13.00;;;;;;;;;;4946156;28;107128;-62
2022/03/06 05:19:02;;;;;;;30.55;15.07;;;;;;;;;;4963313;28;106852;-63
2022/03/06 05:21:28;;;;;;;31.15;14.95;;;;;;;;;;4972492;28;106517;-63
2022/03/06 05:23:55;;;;;;;37.17;15.10;;;;;;;;;;4971490;28;106694;-64
2022/03/06 05:26:21;;;;;;;26.92;13.40;;;;;;;;;;4968125;28;106377;-63
2022/03/06 05:28:48;;;;;;;28.38;14.35;;;;;;;;;;4971753;28;106086;-63
2022/03/06 05:31:14;;;;;;;32.13;14.70;;;;;;;;;;4975463;28;106853;-63
2022/03/06 05:33:40;;;;;;;31.13;16.00;;;;;;;;;;4969292;28;106455;-65
2022/03/06 05:36:07;;;;;;;32.78;15.25;;;;;;;;;;4971595;28;106890;-65
2022/03/06 05:38:33;;;;;;;30.35;14.32;;;;;;;;;;4966412;28;107245;-63
2022/03/06 05:41:00;;;;;;;29.70;14.57;;;;;;;;;;4965687;28;107391;-63
2022/03/06 05:43:26;;;;;;;30.33;14.70;;;;;;;;;;4959405;28;106202;-63
2022/03/06 05:45:53;;;;;;;27.73;14.77;;;;;;;;;;4951860;28;106901;-63
2022/03/06 05:48:19;;;;;;;29.67;14.93;;;;;;;;;;4973844;28;107398;-63
2022/03/06 05:50:46;;;;;;;29.60;14.02;;;;;;;;;;4964122;28;106851;-63
2022/03/06 05:53:12;;;;;;;30.07;15.03;;;;;;;;;;4970852;28;106442;-63
2022/03/06 05:55:39;;;;;;;30.83;15.53;;;;;;;;;;4969784;28;106717;-66
2022/03/06 05:58:05;;;;;;;33.95;15.05;;;;;;;;;;4968800;28;106752;-65
2022/03/06 06:00:32;;;;;;;33.30;15.87;;;;;;;;;;4971655;28;107618;-65
2022/03/06 06:02:58;;;;;;;32.80;15.30;;;;;;;;;;4965608;28;106583;-65
2022/03/06 06:05:25;;;;;;;34.33;15.75;;;;;;;;;;4972538;28;106234;-65
2022/03/06 06:07:51;;;;;;;30.33;14.48;;;;;;;;;;4957124;28;107391;-65
2022/03/06 06:10:18;;;;;;;29.02;14.43;;;;;;;;;;4964813;28;106179;-64
2022/03/06 06:12:45;;;;;;;28.27;14.32;;;;;;;;;;4961202;28;106154;-66
2022/03/06 06:15:11;;;;;;;35.23;16.07;;;;;;;;;;4961728;28;106972;-62
2022/03/06 06:17:38;;;;;;;33.53;15.13;;;;;;;;;;4963293;28;108380;-65
2022/03/06 06:20:05;;;;;;;33.95;15.10;;;;;;;;;;4951480;28;107815;-63
2022/03/06 06:22:32;;;;;;;32.92;14.80;;;;;;;;;;4959378;28;106935;-63
2022/03/06 06:24:58;;;;;;;32.72;15.02;;;;;;;;;;4970402;28;106942;-64
2022/03/06 06:27:25;;;;;;;31.58;14.77;;;;;;;;;;4951311;28;107151;-64
2022/03/06 06:29:52;;;;;;;31.67;14.23;;;;;;;;;;4964257;28;106212;-63
2022/03/06 06:32:18;;;;;;;34.38;15.25;;;;;;;;;;4967681;28;106785;-63
2022/03/06 06:34:45;;;;;;;30.92;14.80;;;;;;;;;;4964123;28;108745;-62
2022/03/06 06:37:12;;;;;;;32.00;14.43;;;;;;;;;;4966214;28;106822;-62
2022/03/06 06:39:39;;;;;;;31.33;14.73;;;;;;;;;;4970339;28;106219;-64
2022/03/06 06:42:05;;;;;;;32.70;13.63;;;;;;;;;;4970481;28;106436;-63
2022/03/06 06:44:32;;;;;;;34.95;14.90;;;;;;;;;;4968641;28;106331;-68
2022/03/06 06:46:59;;;;;;;30.42;14.15;;;;;;;;;;4964397;28;107354;-65
2022/03/06 06:49:27;;;;;;;30.42;13.95;;;;;;;;;;4967053;28;106059;-63
2022/03/06 06:51:53;;;;;;;31.60;14.98;;;;;;;;;;4965584;28;106177;-63
2022/03/06 06:54:19;;;;;;;28.93;14.10;;;;;;;;;;4973608;28;107404;-63
2022/03/06 06:56:46;;;;;;;30.80;14.48;;;;;;;;;;4974035;28;108324;-64
2022/03/06 06:59:13;;;;;;;29.00;14.80;;;;;;;;;;4974257;28;108609;-63
2022/03/06 07:01:40;;;;;;;27.65;14.10;;;;;;;;;;4967888;28;106934;-63
2022/03/06 07:04:07;;;;;;;29.98;14.25;;;;;;;;;;4963734;28;107656;-65
2022/03/06 07:06:33;;;;;;;26.23;12.77;;;;;;;;;;4959530;28;107371;-63
2022/03/06 07:09:00;;;;;;;27.65;14.18;;;;;;;;;;4969266;28;106559;-63
2022/03/06 07:11:26;;;;;;;25.10;13.45;;;;;;;;;;4966049;28;105865;-63
2022/03/06 07:13:52;;;;;;;26.42;13.35;;;;;;;;;;4962474;28;106874;-63
2022/03/06 07:16:19;;;;;;;26.38;12.55;;;;;;;;;;4968159;28;106300;-63
2022/03/06 07:18:46;;;;;;;25.92;13.02;;;;;;;;;;4963407;28;107656;-62
2022/03/06 07:21:12;;;;;;;25.67;13.25;;;;;;;;;;4944279;28;108637;-63
2022/03/06 07:23:38;;;;;;;29.67;12.40;;;;;;;;;;4964581;28;106775;-63
2022/03/06 07:26:05;;;;;;;23.27;12.07;;;;;;;;;;4975139;28;108612;-63
2022/03/06 07:28:31;;;;;;;25.35;12.93;;;;;;;;;;4967134;28;108042;-63
2022/03/06 07:30:57;;;;;;;24.45;12.27;;;;;;;;;;4965518;28;107216;-63
2022/03/06 07:33:24;;;;;;;25.27;12.30;;;;;;;;;;4964634;28;107453;-62
2022/03/06 07:35:50;;;;;;;25.65;11.43;;;;;;;;;;4973452;28;106201;-63
2022/03/06 07:38:17;;;;;;;23.52;12.43;;;;;;;;;;4956590;28;106763;-64
2022/03/06 07:40:44;;;;;;;22.92;12.02;;;;;;;;;;4968386;28;106248;-64
2022/03/06 07:43:10;;;;;;;23.10;12.43;;;;;;;;;;4962647;28;107199;-67
2022/03/06 07:45:36;;;;;;;30.13;12.20;;;;;;;;;;4943525;28;107659;-65
2022/03/06 07:48:06;;;;;;;23.30;11.70;;;;;;;;;;4967495;28;106047;-63
2022/03/06 07:50:32;;;;;;;21.58;11.00;;;;;;;;;;4962914;28;107537;-64
2022/03/06 07:52:59;;;;;;;20.48;11.52;;;;;;;;;;4963664;28;107447;-62
2022/03/06 07:55:25;;;;;;;21.30;11.15;;;;;;;;;;4976355;28;106671;-63
2022/03/06 07:57:51;;;;;;;20.52;11.70;;;;;;;;;;4972749;28;105860;-63
2022/03/06 08:00:18;;;;;;;18.73;10.95;;;;;;;;;;4965675;28;106632;-62
2022/03/06 08:02:44;;;;;;;20.45;11.20;;;;;;;;;;4966888;28;106636;-62
2022/03/06 08:05:11;;;;;;;21.02;10.90;;;;;;;;;;4969216;28;107386;-63
2022/03/06 08:07:37;;;;;;;18.92;10.93;;;;;;;;;;4962737;28;106120;-64
2022/03/06 08:10:06;;;;;;;19.30;11.25;;;;;;;;;;4960919;28;107104;-63
2022/03/06 08:12:32;;;;;;;17.35;10.23;;;;;;;;;;4961485;28;107298;-62
2022/03/06 08:14:59;;;;;;;24.55;11.32;;;;;;;;;;4959653;28;106562;-63
2022/03/06 08:17:25;;;;;;;27.58;10.60;;;;;;;;;;4960079;28;109341;-62
2022/03/06 08:19:53;;;;;;;19.90;10.73;;;;;;;;;;4963276;28;107351;-63
2022/03/06 08:22:21;;;;;;;18.80;9.68;;;;;;;;;;4958522;28;106709;-63
2022/03/06 08:24:47;;;;;;;18.20;9.80;;;;;;;;;;4958488;28;107504;-63
2022/03/06 08:27:13;;;;;;;16.88;9.30;;;;;;;;;;4957973;28;107493;-63
2022/03/06 08:29:40;;;;;;;17.70;9.60;;;;;;;;;;4972339;28;108579;-63
2022/03/06 08:32:07;;;;;;;17.13;9.48;;;;;;;;;;4960013;28;107392;-64
2022/03/06 08:34:33;;;;;;;13.95;8.23;;;;;;;;;;4957134;28;106820;-63
2022/03/06 08:36:59;;;;;;;15.80;8.05;;;;;;;;;;4959973;28;108289;-63
2022/03/06 08:39:26;;;;;;;13.55;7.80;;;;;;;;;;4958474;28;107366;-64
2022/03/06 08:41:52;;;;;;;14.40;7.90;;;;;;;;;;4963142;28;108834;-62
2022/03/06 08:44:18;;;;;;;16.73;7.72;;;;;;;;;;4960243;28;107867;-64
2022/03/06 08:46:45;;;;;;;16.27;7.20;;;;;;;;;;4964542;28;107333;-63
2022/03/06 08:49:11;;;;;;;12.38;7.10;;;;;;;;;;4966251;28;106963;-64
2022/03/06 08:51:37;;;;;;;11.45;6.80;;;;;;;;;;4964711;28;107500;-64
2022/03/06 08:54:04;;;;;;;11.70;6.60;;;;;;;;;;4966271;28;107496;-64
2022/03/06 08:56:30;;;;;;;9.88;6.13;;;;;;;;;;4967569;28;107129;-64
2022/03/06 08:58:57;;;;;;;12.20;6.55;;;;;;;;;;4963858;28;107506;-64
2022/03/06 09:01:23;;;;;;;11.85;6.78;;;;;;;;;;4964524;28;106794;-63
2022/03/06 09:03:50;;;;;;;10.18;6.18;;;;;;;;;;4969791;28;107337;-64
2022/03/06 09:06:16;;;;;;;11.10;6.43;;;;;;;;;;4959692;28;106120;-63
2022/03/06 09:08:43;;;;;;;11.95;6.22;;;;;;;;;;4967827;28;107994;-63
2022/03/06 09:11:09;;;;;;;10.02;5.72;;;;;;;;;;4964732;28;107649;-63
2022/03/06 09:13:36;;;;;;;12.65;6.45;;;;;;;;;;4964930;28;107274;-62
2022/03/06 09:16:03;;;;;;;13.07;5.93;;;;;;;;;;4963337;28;106855;-62
2022/03/06 09:18:30;;;;;;;10.43;5.38;;;;;;;;;;4956389;28;107315;-62
2022/03/06 09:20:56;;;;;;;13.10;5.82;;;;;;;;;;4966273;28;106130;-63
2022/03/06 09:23:24;;;;;;;9.15;5.50;;;;;;;;;;4963709;28;106719;-63
2022/03/06 09:25:50;;;;;;;10.90;6.18;;;;;;;;;;4965164;28;107978;-63
2022/03/06 09:28:16;;;;;;;9.40;5.75;;;;;;;;;;4962025;28;106080;-63
2022/03/06 09:30:43;;;;;;;10.35;5.75;;;;;;;;;;4963489;28;109062;-62
2022/03/06 09:33:10;;;;;;;10.20;5.60;;;;;;;;;;4964408;28;105803;-65
2022/03/06 09:35:36;;;;;;;10.20;5.47;;;;;;;;;;4963000;28;108604;-64
2022/03/06 09:38:03;;;;;;;10.35;5.03;;;;;;;;;;4962828;28;107596;-62
2022/03/06 09:40:29;;;;;;;10.48;4.82;;;;;;;;;;4964931;28;108078;-65
2022/03/06 09:42:55;;;;;;;10.32;5.50;;;;;;;;;;4970454;28;105960;-63
2022/03/06 09:45:23;;;;;;;10.05;4.75;;;;;;;;;;4964369;28;106333;-65
2022/03/06 09:47:50;;;;;;;9.13;4.60;;;;;;;;;;4966184;28;106668;-63
2022/03/06 09:50:16;;;;;;;9.65;4.72;;;;;;;;;;4954831;28;107394;-64
2022/03/06 09:52:43;;;;;;;8.35;4.68;;;;;;;;;;4948556;28;106790;-64
2022/03/06 09:55:10;;;;;;;9.43;4.57;;;;;;;;;;4960556;28;107097;-62
2022/03/06 09:57:37;;;;;;;9.90;5.05;;;;;;;;;;4960482;28;106998;-65
2022/03/06 10:00:05;;;;;;;9.07;4.65;;;;;;;;;;4972973;28;106393;-63
2022/03/06 10:02:32;;;;;;;8.43;4.18;;;;;;;;;;4964552;28;107933;-63
2022/03/06 10:04:58;;;;;;;10.70;5.03;;;;;;;;;;4964241;28;107166;-65
2022/03/06 10:07:25;;;;;;;9.70;4.80;;;;;;;;;;4951103;28;107808;-68
2022/03/06 10:09:55;;;;;;;9.75;5.13;;;;;;;;;;4961158;28;107405;-64
2022/03/06 10:12:22;;;;;;;8.13;4.80;;;;;;;;;;4964272;28;106865;-63
2022/03/06 10:14:50;;;;;;;12.23;4.70;;;;;;;;;;4959094;28;106167;-62
2022/03/06 10:17:17;;;;;;;8.05;4.35;;;;;;;;;;4963101;28;108443;-62
2022/03/06 10:19:47;;;;;;;10.02;5.30;;;;;;;;;;4967197;28;106318;-62
2022/03/06 10:22:13;;;;;;;;;;;;;;;;;;4961474;28;105792;-62
2022/03/06 10:24:50;;;;;;;8.48;5.00;;;;;;;;;;4961943;28;135807;-62
2022/03/06 10:27:17;;;;;;;11.18;5.10;;;;;;;;;;4962608;28;106014;-62
2022/03/06 10:29:43;;;;;;;9.57;5.10;;;;;;;;;;4965705;28;107582;-62
2022/03/06 10:32:09;;;;;;;8.18;4.75;;;;;;;;;;4972835;28;106025;-63
2022/03/06 10:34:39;;;;;;;10.90;4.85;;;;;;;;;;4959431;28;107155;-62
2022/03/06 10:37:05;;;;;;;9.68;5.25;;;;;;;;;;4956361;28;107788;-64
2022/03/06 10:39:43;;;;;;;11.23;4.97;;;;;;;;;;4958577;28;107009;-63
2022/03/06 10:42:10;;;;;;;8.35;5.03;;;;;;;;;;4959385;28;107158;-64
2022/03/06 10:44:44;;;;;;;7.40;5.35;;;;;;;;;;4954748;28;106869;-62
2022/03/06 10:47:16;;;;;;;7.20;4.47;;;;;;;;;;4960406;28;106797;-63
2022/03/06 10:49:57;;;;;;;8.77;4.80;;;;;;;;;;4969695;28;108461;-64
2022/03/06 10:52:24;;;;;;;7.95;4.93;;;;;;;;;;4959744;28;106660;-64
2022/03/06 10:54:51;;;;;;;9.00;4.63;;;;;;;;;;4955017;28;107197;-64
2022/03/06 10:57:18;;;;;;;9.50;5.28;;;;;;;;;;4957389;28;108566;-65
2022/03/06 10:59:45;;;;;;;9.73;5.28;;;;;;;;;;4957718;28;107553;-64
2022/03/06 11:02:12;;;;;;;10.10;5.50;;;;;;;;;;4962901;28;106894;-69
2022/03/06 11:04:39;;;;;;;9.07;5.47;;;;;;;;;;4955689;28;107251;-65
2022/03/06 11:07:06;;;;;;;9.88;5.38;;;;;;;;;;4957967;28;107012;-64
2022/03/06 11:09:33;;;;;;;9.38;5.63;;;;;;;;;;4965678;28;107152;-64
2022/03/06 11:11:59;;;;;;;8.40;4.80;;;;;;;;;;4958008;28;108347;-64
2022/03/06 11:14:26;;;;;;;9.25;5.57;;;;;;;;;;4971873;28;107053;-62
2022/03/06 11:16:52;;;;;;;8.98;4.93;;;;;;;;;;4982720;28;107339;-62
2022/03/06 11:19:18;;;;;;;10.25;5.75;;;;;;;;;;4972193;28;108510;-64
2022/03/06 11:21:46;;;;;;;10.25;5.65;;;;;;;;;;4976490;28;106917;-63
2022/03/06 11:24:26;;;;;;;8.15;5.82;;;;;;;;;;4949728;28;107705;-63
2022/03/06 11:27:15;;;;;;;8.93;5.00;;;;;;;;;;4970573;28;106239;-63
2022/03/06 11:29:42;;;;;;;11.38;5.97;;;;;;;;;;4945332;28;106226;-63
2022/03/06 11:32:08;;;;;;;11.70;6.20;;;;;;;;;;4960899;28;107549;-62
2022/03/06 11:34:37;;;;;;;9.23;5.43;;;;;;;;;;4963994;28;106665;-64
2022/03/06 11:37:05;;;;;;;9.20;5.53;;;;;;;;;;4958139;28;107553;-65
2022/03/06 11:39:32;;;;;;;8.52;5.60;;;;;;;;;;4966909;28;106932;-64
2022/03/06 11:41:59;;;;;;;8.48;5.20;;;;;;;;;;4962513;28;106708;-65
2022/03/06 11:44:47;;;;;;;14.02;6.32;;;;;;;;;;4967093;28;107337;-64
2022/03/06 11:47:18;;;;;;;10.80;5.93;;;;;;;;;;4956399;28;105986;-65
2022/03/06 11:49:54;;;;;;;8.60;5.30;;;;;;;;;;4964113;28;106899;-64
2022/03/06 11:52:27;;;;;;;8.68;5.13;;;;;;;;;;4964401;28;107454;-63
2022/03/06 11:54:53;;;;;;;9.52;5.22;;;;;;;;;;4967639;28;107424;-63
2022/03/06 11:57:38;;;;;;;7.82;5.15;;;;;;;;;;4970233;28;108550;-63
2022/03/06 12:00:13;;;;;;;13.18;6.13;;;;;;;;;;4965618;28;107084;-63
2022/03/06 12:02:53;;;;;;;10.70;5.93;;;;;;;;;;4964904;28;107081;-64
2022/03/06 12:05:20;;;;;;;11.98;5.70;;;;;;;;;;4961337;28;107750;-64
2022/03/06 12:07:46;;;;;;;13.95;6.32;;;;;;;;;;4969308;28;106189;-65
2022/03/06 12:10:14;;;;;;;7.75;5.30;;;;;;;;;;4965084;28;107293;-63
2022/03/06 12:12:40;;;;;;;8.45;5.30;;;;;;;;;;4964195;28;106324;-63
2022/03/06 12:15:14;;;;;;;7.32;4.80;;;;;;;;;;4955669;28;106978;-64
2022/03/06 12:17:41;;;;;;;9.05;5.10;;;;;;;;;;4956225;28;107551;-63
2022/03/06 12:20:07;;;;;;;9.45;5.43;;;;;;;;;;4963213;28;106271;-66
2022/03/06 12:22:34;;;;;;;11.40;5.68;;;;;;;;;;4960556;28;107085;-63
2022/03/06 12:25:07;;;;;;;11.50;5.13;;;;;;;;;;4960252;28;107160;-64
2022/03/06 12:27:34;;;;;;;8.95;5.88;;;;;;;;;;4964212;28;106051;-65
2022/03/06 12:30:03;;;;;;;8.13;5.10;;;;;;;;;;4944017;28;106554;-65
2022/03/06 12:32:31;;;;;;;7.90;4.97;;;;;;;;;;4959359;28;108956;-65
2022/03/06 12:35:03;;;;;;;8.68;5.57;;;;;;;;;;4958718;28;108763;-65
2022/03/06 12:37:31;;;;;;;8.38;5.80;;;;;;;;;;4958111;28;107610;-66
2022/03/06 12:39:58;;;;;;;9.32;5.78;;;;;;;;;;4958689;28;107203;-67
2022/03/06 12:42:26;;;;;;;9.32;5.35;;;;;;;;;;4963904;28;106170;-66
2022/03/06 12:44:53;;;;;;;11.63;6.10;;;;;;;;;;4958157;28;107534;-65
2022/03/06 12:47:20;;;;;;;8.95;5.43;;;;;;;;;;4957464;28;106685;-65
2022/03/06 12:49:51;;;;;;;8.63;5.95;;;;;;;;;;4962551;28;107857;-64
2022/03/06 12:52:19;;;;;;;10.32;6.35;;;;;;;;;;4958735;28;109334;-65
2022/03/06 12:54:46;;;;;;;7.38;5.25;;;;;;;;;;4964545;28;106946;-65
2022/03/06 12:57:12;;;;;;;8.60;5.53;;;;;;;;;;4958224;28;108814;-65
2022/03/06 12:59:41;;;;;;;9.32;5.82;;;;;;;;;;4959816;28;108984;-66
2022/03/06 13:02:08;;;;;;;9.45;6.05;;;;;;;;;;4958711;28;108581;-67
2022/03/06 13:04:35;;;;;;;9.93;6.07;;;;;;;;;;4962284;28;107501;-65
2022/03/06 13:07:05;;;;;;;8.07;5.90;;;;;;;;;;4958513;28;105994;-65
2022/03/06 13:09:34;;;;;;;8.82;5.82;;;;;;;;;;4956789;28;107545;-66
2022/03/06 13:12:01;;;;;;;7.72;5.57;;;;;;;;;;4958732;28;107488;-65
2022/03/06 13:14:28;;;;;;;11.35;6.03;;;;;;;;;;4957448;28;108762;-65
2022/03/06 13:16:58;;;;;;;8.30;5.80;;;;;;;;;;4943500;28;107856;-65
2022/03/06 13:19:25;;;;;;;11.82;6.00;;;;;;;;;;4957945;28;108197;-65
2022/03/06 13:21:51;;;;;;;9.50;5.47;;;;;;;;;;4959268;28;107125;-65
2022/03/06 13:24:18;;;;;;;12.00;5.88;;;;;;;;;;4943719;28;108591;-65
2022/03/06 13:26:45;;;;;;;8.75;5.68;;;;;;;;;;4961972;28;108849;-65
2022/03/06 13:29:14;;;;;;;8.95;5.35;;;;;;;;;;4958238;28;108820;-66
2022/03/06 13:31:45;;;;;;;8.13;5.43;;;;;;;;;;4958775;28;107849;-66
2022/03/06 13:34:13;;;;;;;9.07;5.53;;;;;;;;;;4959359;28;108013;-65
2022/03/06 13:36:40;;;;;;;8.57;5.32;;;;;;;;;;4956940;28;107060;-65
2022/03/06 13:39:13;;;;;;;7.20;5.07;;;;;;;;;;4959465;28;109023;-68
2022/03/06 13:41:48;;;;;;;7.65;4.30;;;;;;;;;;4960173;28;108543;-66
2022/03/06 13:44:14;;;;;;;6.72;3.85;;;;;;;;;;4965294;28;107874;-66
2022/03/06 13:46:41;;;;;;;7.50;3.53;;;;;;;;;;4961431;28;106780;-66
2022/03/06 13:49:08;;;;;;;5.47;3.50;;;;;;;;;;4956568;28;108119;-67
2022/03/06 13:51:34;;;;;;;6.90;3.20;;;;;;;;;;4959264;28;108091;-66
2022/03/06 13:54:03;;;;;;;5.40;3.05;;;;;;;;;;4952587;28;106912;-66
2022/03/06 13:56:34;;;;;;;6.00;3.30;;;;;;;;;;4956884;28;108528;-66
2022/03/06 13:59:01;;;;;;;6.50;3.30;;;;;;;;;;4954169;28;109108;-65
2022/03/06 14:01:27;;;;;;;5.38;3.30;;;;;;;;;;4954869;28;106951;-66
2022/03/06 14:04:02;;;;;;;6.53;3.50;;;;;;;;;;4957388;28;107742;-65
2022/03/06 14:06:38;;;;;;;4.68;2.72;;;;;;;;;;4954402;28;109263;-65
2022/03/06 14:09:18;;;;;;;6.43;3.17;;;;;;;;;;4960199;28;107066;-65
2022/03/06 14:11:51;;;;;;;4.65;2.80;;;;;;;;;;4955426;28;108239;-65
2022/03/06 14:14:17;;;;;;;5.18;2.40;;;;;;;;;;4956073;28;107845;-66